createdAt,value
2019-06-26T00:00:56.391Z,4.50
2019-06-26T00:03:25.494Z,4.10
2019-06-26T00:05:54.595Z,4.40
2019-06-26T00:08:23.728Z,4.13
2019-06-26T00:10:52.847Z,4.40
2019-06-26T00:13:26.158Z,4.63
2019-06-26T00:15:52.882Z,4.50
2019-06-26T00:18:22.086Z,4.77
2019-06-26T00:20:51.250Z,4.90
2019-06-26T00:23:20.402Z,5.00
2019-06-26T00:25:49.510Z,4.73
2019-06-26T00:28:18.735Z,4.40
2019-06-26T00:30:47.903Z,4.60
2019-06-26T00:33:17.023Z,4.60
2019-06-26T00:35:46.120Z,4.30
2019-06-26T00:38:15.303Z,4.87
2019-06-26T00:40:44.529Z,4.70
2019-06-26T00:43:13.632Z,4.50
2019-06-26T00:45:42.767Z,9.10
2019-06-26T00:48:11.874Z,9.40
2019-06-26T00:50:40.985Z,6.77
2019-06-26T00:53:10.158Z,6.07
2019-06-26T00:55:39.257Z,5.23
2019-06-26T00:58:08.435Z,5.20
2019-06-26T01:00:40.226Z,4.97
2019-06-26T01:03:09.361Z,5.30
2019-06-26T01:05:38.460Z,5.23
2019-06-26T01:08:07.567Z,5.17
2019-06-26T01:10:36.662Z,5.17
2019-06-26T01:13:05.766Z,4.93
2019-06-26T01:15:34.896Z,4.87
2019-06-26T01:18:04.126Z,4.90
2019-06-26T01:20:33.283Z,5.20
2019-06-26T01:23:02.484Z,5.00
2019-06-26T01:25:31.658Z,5.47
2019-06-26T01:28:00.778Z,5.60
2019-06-26T01:30:29.874Z,5.30
2019-06-26T01:32:58.972Z,5.50
2019-06-26T01:35:28.113Z,6.07
2019-06-26T01:37:57.267Z,5.83
2019-06-26T01:40:26.352Z,5.30
2019-06-26T01:42:55.500Z,5.73
2019-06-26T01:45:24.597Z,6.03
2019-06-26T01:47:54.231Z,6.17
2019-06-26T01:50:23.460Z,5.67
2019-06-26T01:52:52.580Z,6.37
2019-06-26T01:55:21.685Z,6.30
2019-06-26T01:57:50.789Z,6.93
2019-06-26T02:00:19.955Z,6.60
2019-06-26T02:02:49.074Z,7.00
2019-06-26T02:05:18.167Z,7.20
2019-06-26T02:07:47.292Z,7.40
2019-06-26T02:10:16.668Z,7.50
2019-06-26T02:12:46.141Z,6.90
2019-06-26T02:15:15.406Z,7.43
2019-06-26T02:17:44.570Z,7.10
2019-06-26T02:20:13.767Z,7.10
2019-06-26T02:22:42.910Z,7.07
2019-06-26T02:25:12.203Z,7.43
2019-06-26T02:27:41.307Z,7.40
2019-06-26T02:30:10.587Z,7.70
2019-06-26T02:32:39.703Z,7.23
2019-06-26T02:35:10.128Z,7.63
2019-06-26T02:37:39.765Z,7.70
2019-06-26T02:40:09.314Z,7.77
2019-06-26T02:42:38.579Z,7.80
2019-06-26T02:45:08.889Z,7.67
2019-06-26T02:47:38.050Z,7.43
2019-06-26T02:50:07.181Z,7.80
2019-06-26T02:52:36.274Z,8.10
2019-06-26T02:55:06.015Z,7.73
2019-06-26T02:57:35.241Z,8.03
2019-06-26T03:00:05.458Z,7.63
2019-06-26T03:02:34.646Z,7.80
2019-06-26T03:05:04.066Z,7.93
2019-06-26T03:07:33.611Z,7.90
2019-06-26T03:10:04.351Z,7.83
2019-06-26T03:12:33.559Z,8.10
2019-06-26T03:15:08.960Z,8.50
2019-06-26T03:17:34.483Z,8.27
2019-06-26T03:20:04.895Z,8.67
2019-06-26T03:22:34.079Z,8.07
2019-06-26T03:25:03.254Z,8.03
2019-06-26T03:27:32.348Z,8.13
2019-06-26T03:30:01.503Z,8.07
2019-06-26T03:32:30.743Z,8.30
2019-06-26T03:34:59.904Z,8.20
2019-06-26T03:37:29.370Z,7.87
2019-06-26T03:39:58.567Z,7.77
2019-06-26T03:42:27.670Z,7.93
2019-06-26T03:44:56.827Z,7.30
2019-06-26T03:47:25.987Z,7.00
2019-06-26T03:49:55.106Z,6.90
2019-06-26T03:52:24.225Z,7.03
2019-06-26T03:54:53.314Z,6.50
2019-06-26T03:57:22.523Z,6.20
2019-06-26T03:59:51.647Z,6.10
2019-06-26T04:02:21.052Z,5.97
2019-06-26T04:04:50.150Z,6.50
2019-06-26T04:07:19.352Z,5.73
2019-06-26T04:09:48.426Z,6.33
2019-06-26T04:12:17.526Z,6.20
2019-06-26T04:14:46.625Z,5.75
2019-06-26T04:17:15.835Z,5.60
2019-06-26T04:19:44.926Z,5.62
2019-06-26T04:22:14.026Z,5.62
2019-06-26T04:24:43.118Z,5.53
2019-06-26T04:27:12.243Z,5.10
2019-06-26T04:29:41.342Z,5.33
2019-06-26T04:32:10.455Z,5.47
2019-06-26T04:34:39.570Z,5.67
2019-06-26T04:37:08.671Z,5.85
2019-06-26T04:39:37.766Z,5.50
2019-06-26T04:42:06.903Z,5.35
2019-06-26T04:44:35.989Z,4.90
2019-06-26T04:47:05.525Z,4.90
2019-06-26T04:49:34.775Z,5.10
2019-06-26T04:52:03.889Z,5.60
2019-06-26T04:54:33.895Z,7.20
2019-06-26T04:57:02.994Z,5.40
2019-06-26T04:59:32.086Z,5.45
2019-06-26T05:02:01.660Z,5.00
2019-06-26T05:04:30.912Z,4.90
2019-06-26T05:07:02.986Z,4.80
2019-06-26T05:09:32.078Z,4.33
2019-06-26T05:12:01.179Z,4.72
2019-06-26T05:14:30.351Z,4.90
2019-06-26T05:16:59.438Z,4.58
2019-06-26T05:19:28.563Z,4.90
2019-06-26T05:21:57.770Z,4.80
2019-06-26T05:24:34.666Z,4.83
2019-06-26T05:27:03.828Z,4.85
2019-06-26T05:29:32.920Z,4.67
2019-06-26T05:32:02.407Z,5.10
2019-06-26T05:34:31.609Z,4.95
2019-06-26T05:37:01.099Z,4.95
2019-06-26T05:39:30.785Z,4.60
2019-06-26T05:41:59.974Z,4.30
2019-06-26T05:44:29.511Z,4.45
2019-06-26T05:46:58.690Z,4.67
2019-06-26T05:49:27.965Z,4.85
2019-06-26T05:51:57.463Z,4.80
2019-06-26T05:54:27.070Z,4.70
2019-06-26T05:56:56.314Z,4.55
2019-06-26T05:59:25.830Z,4.95
2019-06-26T06:01:55.433Z,5.10
2019-06-26T06:04:25.050Z,4.45
2019-06-26T06:06:54.290Z,4.42
2019-06-26T06:09:24.374Z,4.80
2019-06-26T06:11:53.958Z,4.65
2019-06-26T06:14:23.577Z,4.58
2019-06-26T06:16:52.755Z,5.05
2019-06-26T06:19:21.871Z,4.60
2019-06-26T06:21:50.964Z,4.78
2019-06-26T06:24:20.490Z,4.72
2019-06-26T06:26:50.086Z,5.00
2019-06-26T06:29:19.298Z,5.03
2019-06-26T06:31:48.796Z,4.50
2019-06-26T06:34:18.001Z,4.65
2019-06-26T06:36:47.102Z,4.65
2019-06-26T06:39:16.610Z,4.55
2019-06-26T06:41:46.242Z,4.30
2019-06-26T06:44:15.406Z,4.65
2019-06-26T06:46:44.916Z,4.60
2019-06-26T06:49:14.504Z,4.67
2019-06-26T06:51:43.690Z,5.60
2019-06-26T06:54:12.786Z,6.33
2019-06-26T06:56:41.894Z,4.67
2019-06-26T06:59:11.614Z,4.17
2019-06-26T07:01:41.224Z,4.25
2019-06-26T07:04:10.822Z,4.35
2019-06-26T07:06:40.014Z,3.75
2019-06-26T07:09:09.114Z,4.12
2019-06-26T07:11:38.228Z,4.03
2019-06-26T07:14:07.862Z,4.00
2019-06-26T07:16:37.542Z,3.67
2019-06-26T07:19:06.714Z,4.05
2019-06-26T07:21:35.809Z,3.72
2019-06-26T07:24:04.902Z,3.70
2019-06-26T07:26:34.431Z,4.15
2019-06-26T07:29:04.621Z,4.05
2019-06-26T07:31:34.235Z,4.00
2019-06-26T07:34:04.063Z,3.85
2019-06-26T07:36:33.446Z,4.10
2019-06-26T07:39:02.791Z,4.08
2019-06-26T07:41:33.847Z,4.25
2019-06-26T07:44:03.494Z,4.12
2019-06-26T07:46:32.792Z,3.70
2019-06-26T07:49:02.593Z,4.40
2019-06-26T07:51:31.897Z,4.37
2019-06-26T07:54:01.032Z,4.08
2019-06-26T07:56:30.558Z,4.00
2019-06-26T07:58:59.847Z,4.30
2019-06-26T08:01:30.027Z,4.40
2019-06-26T08:03:59.296Z,4.37
2019-06-26T08:06:28.853Z,4.22
2019-06-26T08:08:58.070Z,4.30
2019-06-26T08:11:27.292Z,4.25
2019-06-26T08:13:56.876Z,4.53
2019-06-26T08:16:26.623Z,4.50
2019-06-26T08:18:56.557Z,4.95
2019-06-26T08:21:28.893Z,4.03
2019-06-26T08:23:58.693Z,4.20
2019-06-26T08:26:28.202Z,4.17
2019-06-26T08:28:59.445Z,4.22
2019-06-26T08:31:28.548Z,4.30
2019-06-26T08:33:57.692Z,3.95
2019-06-26T08:36:27.213Z,3.87
2019-06-26T08:38:56.501Z,6.58
2019-06-26T08:41:25.631Z,7.75
2019-06-26T08:43:55.243Z,5.70
2019-06-26T08:46:24.873Z,4.05
2019-06-26T08:48:54.087Z,4.10
2019-06-26T08:51:23.208Z,3.90
2019-06-26T08:53:52.418Z,4.12
2019-06-26T08:56:21.597Z,4.30
2019-06-26T08:58:51.107Z,4.00
2019-06-26T09:01:20.285Z,4.55
2019-06-26T09:03:49.384Z,4.37
2019-06-26T09:06:18.486Z,4.05
2019-06-26T09:08:48.000Z,4.22
2019-06-26T09:11:17.651Z,4.20
2019-06-26T09:13:47.164Z,4.50
2019-06-26T09:16:16.302Z,4.53
2019-06-26T09:18:45.879Z,4.60
2019-06-26T09:21:15.092Z,4.58
2019-06-26T09:23:44.391Z,4.80
2019-06-26T09:26:14.534Z,4.87
2019-06-26T09:28:44.054Z,4.75
2019-06-26T09:31:13.231Z,4.80
2019-06-26T09:33:42.763Z,5.03
2019-06-26T09:36:12.404Z,4.78
2019-06-26T09:38:42.075Z,4.55
2019-06-26T09:41:11.325Z,4.45
2019-06-26T09:43:40.881Z,4.35
2019-06-26T09:46:10.565Z,4.65
2019-06-26T09:48:52.004Z,4.67
2019-06-26T09:51:10.679Z,4.58
2019-06-26T09:53:46.994Z,4.53
2019-06-26T09:56:10.575Z,4.58
2019-06-26T09:58:39.687Z,4.65
2019-06-26T10:01:09.259Z,4.67
2019-06-26T10:03:38.879Z,4.70
2019-06-26T10:06:08.055Z,8.20
2019-06-26T10:08:38.126Z,7.00
2019-06-26T10:11:07.633Z,5.60
2019-06-26T10:13:37.264Z,5.08
2019-06-26T10:16:08.110Z,5.40
2019-06-26T10:18:37.326Z,4.92
2019-06-26T10:21:06.483Z,4.87
2019-06-26T10:23:37.013Z,5.03
2019-06-26T10:26:06.095Z,4.87
2019-06-26T10:28:35.693Z,4.58
2019-06-26T10:31:05.206Z,4.60
2019-06-26T10:33:34.355Z,5.00
2019-06-26T10:36:04.123Z,4.50
2019-06-26T10:38:33.783Z,4.58
2019-06-26T10:41:03.005Z,4.80
2019-06-26T10:43:32.569Z,5.15
2019-06-26T10:46:01.824Z,5.53
2019-06-26T10:48:30.998Z,4.90
2019-06-26T10:51:00.175Z,4.87
2019-06-26T10:53:29.255Z,4.87
2019-06-26T10:55:58.830Z,4.53
2019-06-26T10:58:28.011Z,4.97
2019-06-26T11:00:57.119Z,4.40
2019-06-26T11:03:26.627Z,4.70
2019-06-26T11:05:55.816Z,4.85
2019-06-26T11:08:24.969Z,5.00
2019-06-26T11:10:54.119Z,5.95
2019-06-26T11:13:23.215Z,6.00
2019-06-26T11:15:52.339Z,17.12
2019-06-26T11:18:21.757Z,8.40
2019-06-26T11:20:50.867Z,5.53
2019-06-26T11:23:19.934Z,5.90
2019-06-26T11:25:49.043Z,5.67
2019-06-26T11:28:18.123Z,6.28
2019-06-26T11:30:47.635Z,4.85
2019-06-26T11:33:16.818Z,5.20
2019-06-26T11:35:45.938Z,5.62
2019-06-26T11:38:15.081Z,6.07
2019-06-26T11:40:44.192Z,5.67
2019-06-26T11:43:13.357Z,5.77
2019-06-26T11:45:43.022Z,6.27
2019-06-26T11:48:12.290Z,5.97
2019-06-26T11:50:41.381Z,6.33
2019-06-26T11:53:10.546Z,7.73
2019-06-26T11:55:39.649Z,7.17
2019-06-26T11:58:08.731Z,6.10
2019-06-26T12:00:41.441Z,6.20
2019-06-26T12:03:08.622Z,6.70
2019-06-26T12:05:37.744Z,7.07
2019-06-26T12:08:06.862Z,7.17
2019-06-26T12:10:36.047Z,6.87
2019-06-26T12:13:05.218Z,6.60
2019-06-26T12:15:34.322Z,7.20
2019-06-26T12:18:03.467Z,7.33
2019-06-26T12:20:32.636Z,7.57
2019-06-26T12:23:02.040Z,7.20
2019-06-26T12:25:31.146Z,7.13
2019-06-26T12:28:00.291Z,7.43
2019-06-26T12:30:29.458Z,7.80
2019-06-26T12:33:03.278Z,7.70
2019-06-26T12:35:29.372Z,7.93
2019-06-26T12:37:58.546Z,8.03
2019-06-26T12:40:30.961Z,8.03
2019-06-26T12:42:58.564Z,9.43
2019-06-26T12:45:27.736Z,9.20
2019-06-26T12:47:56.870Z,8.47
2019-06-26T12:50:35.256Z,9.13
2019-06-26T12:52:56.930Z,8.67
2019-06-26T12:55:26.051Z,8.80
2019-06-26T12:58:11.391Z,8.87
2019-06-26T13:00:26.119Z,9.57
2019-06-26T13:02:55.239Z,9.13
2019-06-26T13:05:24.414Z,8.90
2019-06-26T13:07:53.512Z,8.23
2019-06-26T13:10:22.630Z,8.23
2019-06-26T13:12:51.765Z,8.63
2019-06-26T13:15:20.850Z,10.77
2019-06-26T13:17:49.989Z,8.00
2019-06-26T13:20:19.189Z,7.97
2019-06-26T13:22:48.395Z,7.30
2019-06-26T13:25:17.527Z,5.73
2019-06-26T13:27:46.621Z,6.57
2019-06-26T13:30:18.121Z,6.00
2019-06-26T13:32:47.239Z,5.30
2019-06-26T13:35:16.335Z,5.40
2019-06-26T13:37:45.454Z,6.07
2019-06-26T13:40:14.614Z,4.93
2019-06-26T13:42:43.756Z,5.40
2019-06-26T13:45:14.060Z,5.60
2019-06-26T13:47:43.203Z,6.00
2019-06-26T13:50:12.919Z,6.60
2019-06-26T13:52:42.073Z,6.23
2019-06-26T13:55:11.166Z,5.50
2019-06-26T13:57:40.284Z,5.90
2019-06-26T14:00:10.527Z,7.00
2019-06-26T14:02:39.688Z,7.30
2019-06-26T14:05:08.911Z,7.40
2019-06-26T14:07:38.114Z,7.60
2019-06-26T14:10:08.144Z,6.47
2019-06-26T14:12:37.264Z,6.73
2019-06-26T14:15:07.604Z,6.90
2019-06-26T14:17:36.847Z,6.80
2019-06-26T14:20:06.214Z,7.53
2019-06-26T14:22:35.333Z,7.03
2019-06-26T14:25:04.719Z,6.13
2019-06-26T14:27:33.834Z,6.20
2019-06-26T14:30:03.065Z,6.50
2019-06-26T14:32:32.295Z,6.33
2019-06-26T14:35:01.394Z,6.57
2019-06-26T14:37:30.729Z,6.23
2019-06-26T14:40:00.815Z,6.30
2019-06-26T14:42:29.974Z,6.80
2019-06-26T14:44:59.084Z,6.97
2019-06-26T14:47:28.198Z,6.67
2019-06-26T14:49:57.687Z,5.97
2019-06-26T14:52:26.862Z,6.23
2019-06-26T14:54:56.015Z,5.80
2019-06-26T14:57:26.246Z,5.80
2019-06-26T14:59:55.368Z,5.80
2019-06-26T15:02:24.543Z,5.50
2019-06-26T15:04:53.803Z,6.90
2019-06-26T15:07:22.910Z,5.97
2019-06-26T15:09:52.011Z,5.13
2019-06-26T15:12:21.108Z,5.10
2019-06-26T15:14:50.391Z,5.43
2019-06-26T15:17:19.691Z,4.90
2019-06-26T15:19:48.886Z,4.80
2019-06-26T15:22:18.004Z,5.30
2019-06-26T15:24:47.198Z,5.20
2019-06-26T15:27:16.292Z,5.07
2019-06-26T15:29:45.458Z,5.90
2019-06-26T15:32:14.548Z,5.47
2019-06-26T15:34:43.752Z,5.33
2019-06-26T15:37:12.835Z,7.37
2019-06-26T15:39:41.942Z,5.50
2019-06-26T15:42:11.787Z,4.87
2019-06-26T15:44:40.970Z,4.37
2019-06-26T15:47:10.122Z,4.33
2019-06-26T15:49:39.292Z,4.40
2019-06-26T15:52:15.218Z,4.43
2019-06-26T15:54:39.264Z,4.63
2019-06-26T15:57:08.384Z,4.00
2019-06-26T15:59:37.731Z,3.70
2019-06-26T16:02:06.942Z,5.37
2019-06-26T16:04:36.066Z,6.63
2019-06-26T16:07:05.228Z,3.60
2019-06-26T16:09:34.339Z,3.27
2019-06-26T16:12:03.422Z,3.57
2019-06-26T16:14:32.556Z,3.60
2019-06-26T16:17:06.082Z,3.70
2019-06-26T16:19:35.179Z,4.43
2019-06-26T16:22:04.312Z,5.53
2019-06-26T16:24:33.851Z,4.57
2019-06-26T16:27:02.998Z,4.20
2019-06-26T16:29:32.128Z,4.83
2019-06-26T16:32:01.214Z,4.70
2019-06-26T16:34:30.408Z,4.60
2019-06-26T16:36:59.519Z,5.30
2019-06-26T16:39:28.638Z,5.33
2019-06-26T16:41:57.754Z,5.90
2019-06-26T16:44:26.870Z,6.70
2019-06-26T16:46:59.150Z,4.90
2019-06-26T16:49:26.827Z,4.70
2019-06-26T16:51:56.028Z,4.80
2019-06-26T16:54:25.184Z,5.60
2019-06-26T16:56:54.347Z,4.90
2019-06-26T16:59:23.530Z,6.03
2019-06-26T17:01:52.764Z,6.20
2019-06-26T17:04:21.851Z,4.70
2019-06-26T17:06:50.954Z,4.37
2019-06-26T17:09:21.027Z,4.03
2019-06-26T17:11:50.242Z,4.00
2019-06-26T17:14:19.321Z,4.00
2019-06-26T17:16:48.501Z,4.30
2019-06-26T17:19:17.662Z,3.77
2019-06-26T17:21:46.775Z,3.97
2019-06-26T17:24:15.882Z,4.20
2019-06-26T17:26:46.443Z,3.63
2019-06-26T17:29:15.534Z,3.80
2019-06-26T17:31:44.655Z,4.27
2019-06-26T17:34:13.767Z,3.40
2019-06-26T17:36:42.870Z,4.03
2019-06-26T17:39:11.958Z,3.60
2019-06-26T17:41:43.997Z,3.63
2019-06-26T17:44:11.946Z,3.13
2019-06-26T17:46:41.056Z,3.17
2019-06-26T17:49:10.162Z,3.20
2019-06-26T17:51:39.509Z,3.53
2019-06-26T17:54:08.854Z,3.20
2019-06-26T17:56:38.035Z,3.30
2019-06-26T17:59:07.868Z,3.30
2019-06-26T18:01:37.268Z,3.27
2019-06-26T18:04:08.033Z,3.23
2019-06-26T18:06:38.300Z,3.20
2019-06-26T18:09:11.227Z,3.00
2019-06-26T18:11:38.896Z,3.60
2019-06-26T18:14:08.062Z,3.67
2019-06-26T18:16:37.172Z,3.37
2019-06-26T18:19:06.255Z,3.47
2019-06-26T18:21:36.327Z,3.20
2019-06-26T18:24:05.479Z,3.20
2019-06-26T18:26:34.599Z,3.07
2019-06-26T18:29:03.687Z,3.67
2019-06-26T18:31:32.786Z,3.57
2019-06-26T18:34:01.992Z,3.27
2019-06-26T18:36:33.639Z,3.10
2019-06-26T18:39:03.251Z,3.30
2019-06-26T18:41:32.351Z,3.00
2019-06-26T18:44:01.435Z,3.73
2019-06-26T18:46:30.667Z,3.30
2019-06-26T18:48:59.919Z,4.00
2019-06-26T18:51:29.031Z,3.30
2019-06-26T18:54:00.997Z,3.33
2019-06-26T18:56:29.159Z,3.50
2019-06-26T18:58:58.251Z,3.73
2019-06-26T19:01:27.382Z,3.27
2019-06-26T19:03:56.458Z,3.20
2019-06-26T19:06:25.576Z,4.00
2019-06-26T19:08:54.670Z,4.20
2019-06-26T19:11:23.787Z,4.00
2019-06-26T19:13:52.901Z,3.80
2019-06-26T19:16:22.011Z,3.50
2019-06-26T19:18:51.133Z,3.63
2019-06-26T19:21:20.207Z,4.07
2019-06-26T19:23:49.332Z,4.10
2019-06-26T19:26:18.419Z,3.67
2019-06-26T19:28:47.491Z,3.50
2019-06-26T19:31:16.583Z,3.60
2019-06-26T19:33:45.810Z,3.60
2019-06-26T19:36:15.084Z,3.63
2019-06-26T19:38:44.239Z,3.87
2019-06-26T19:41:13.359Z,4.03
2019-06-26T19:43:43.635Z,4.20
2019-06-26T19:46:12.721Z,4.30
2019-06-26T19:48:41.841Z,4.50
2019-06-26T19:51:11.071Z,4.53
2019-06-26T19:53:40.262Z,4.70
2019-06-26T19:56:09.400Z,4.57
2019-06-26T19:58:38.537Z,4.37
2019-06-26T20:01:07.630Z,4.67
2019-06-26T20:03:36.750Z,4.53
2019-06-26T20:06:05.860Z,5.20
2019-06-26T20:08:51.847Z,4.67
2019-06-26T20:11:08.190Z,4.70
2019-06-26T20:13:37.353Z,4.50
2019-06-26T20:16:07.217Z,5.00
2019-06-26T20:18:36.325Z,4.90
2019-06-26T20:21:05.493Z,4.97
2019-06-26T20:23:36.085Z,5.37
2019-06-26T20:26:05.199Z,5.80
2019-06-26T20:28:34.386Z,5.10
2019-06-26T20:31:03.650Z,5.07
2019-06-26T20:33:32.758Z,4.53
2019-06-26T20:36:01.887Z,4.97
2019-06-26T20:38:31.057Z,4.90
2019-06-26T20:41:00.218Z,4.80
2019-06-26T20:43:29.347Z,3.50
2019-06-26T20:45:58.442Z,3.73
2019-06-26T20:48:27.660Z,3.50
2019-06-26T20:50:56.749Z,3.57
2019-06-26T20:53:28.010Z,3.40
2019-06-26T20:55:56.745Z,3.10
2019-06-26T20:58:25.887Z,3.90
2019-06-26T21:00:55.135Z,4.30
2019-06-26T21:03:24.338Z,4.70
2019-06-26T21:05:53.467Z,9.87
2019-06-26T21:08:22.854Z,4.80
2019-06-26T21:11:23.256Z,2.80
2019-06-26T21:13:55.469Z,3.00
2019-06-26T21:16:25.819Z,2.97
2019-06-26T21:18:54.955Z,2.50
2019-06-26T21:21:26.975Z,2.40
2019-06-26T21:23:57.190Z,2.90
2019-06-26T21:26:26.317Z,2.27
2019-06-26T21:28:55.491Z,2.00
2019-06-26T21:31:24.595Z,2.00
2019-06-26T21:33:53.707Z,2.10
2019-06-26T21:36:22.857Z,2.10
2019-06-26T21:39:14.463Z,2.10
2019-06-26T21:41:43.566Z,1.97
2019-06-26T21:44:15.694Z,2.17
2019-06-26T21:46:44.446Z,2.10
2019-06-26T21:49:13.547Z,2.10
2019-06-26T21:51:42.646Z,2.20
2019-06-26T21:54:11.859Z,2.10
2019-06-26T21:56:58.672Z,2.10
2019-06-26T21:59:48.259Z,2.13
2019-06-26T22:02:35.342Z,1.90
2019-06-26T22:05:06.716Z,2.00
2019-06-26T22:07:37.431Z,2.93
2019-06-26T22:10:26.138Z,2.50
2019-06-26T22:12:55.297Z,2.17
2019-06-26T22:15:24.407Z,2.30
2019-06-26T22:17:53.490Z,2.27
2019-06-26T22:20:22.674Z,2.00
2019-06-26T22:22:51.787Z,1.90
2019-06-26T22:25:20.977Z,2.03
2019-06-26T22:27:50.095Z,1.67
2019-06-26T22:30:19.362Z,1.90
2019-06-26T22:32:48.466Z,2.37
2019-06-26T22:35:17.999Z,4.43
2019-06-26T22:37:47.251Z,9.10
2019-06-26T22:40:16.364Z,2.17
2019-06-26T22:42:45.483Z,1.90
2019-06-26T22:45:14.779Z,1.80
2019-06-26T22:47:43.879Z,2.00
2019-06-26T22:50:13.062Z,1.57
2019-06-26T22:52:42.234Z,2.10
2019-06-26T22:55:11.438Z,2.20
2019-06-26T22:57:41.172Z,2.20
2019-06-26T23:00:12.396Z,2.37
2019-06-26T23:02:41.559Z,2.00
2019-06-26T23:05:10.747Z,1.90
2019-06-26T23:07:39.826Z,2.00
2019-06-26T23:10:09.099Z,2.10
2019-06-26T23:12:38.198Z,2.30
2019-06-26T23:15:07.494Z,2.27
2019-06-26T23:17:36.678Z,2.50
2019-06-26T23:20:05.799Z,3.00
2019-06-26T23:22:35.143Z,2.53
2019-06-26T23:25:04.416Z,2.70
2019-06-26T23:27:37.626Z,2.57
2019-06-26T23:30:08.536Z,2.67
2019-06-26T23:32:37.637Z,8.60
2019-06-26T23:35:06.764Z,6.00
2019-06-26T23:37:35.874Z,4.70
2019-06-26T23:40:05.162Z,2.50
2019-06-26T23:42:34.431Z,2.53
2019-06-26T23:45:03.694Z,2.20
2019-06-26T23:47:34.032Z,2.03
2019-06-26T23:50:03.158Z,2.33
2019-06-26T23:52:32.290Z,3.50
2019-06-26T23:55:02.991Z,4.57
2019-06-26T23:57:32.107Z,3.00
